sensor_id;sensor_type;location;lat;lon;timestamp;P1;durP1;ratioP1;P2;durP2;ratioP2
5871;SDS011;2962;51.312;7.378;2023-07-30T00:02:16;6.47;;;2.53;;
5871;SDS011;2962;51.312;7.378;2023-07-30T00:04:43;2.50;;;2.50;;
5871;SDS011;2962;51.312;7.378;2023-07-30T00:07:09;3.03;;;2.83;;
5871;SDS011;2962;51.312;7.378;2023-07-30T00:09:34;8.00;;;2.90;;
5871;SDS011;2962;51.312;7.378;2023-07-30T00:11:59;5.67;;;3.30;;
5871;SDS011;2962;51.312;7.378;2023-07-30T00:14:27;3.90;;;3.07;;
5871;SDS011;2962;51.312;7.378;2023-07-30T00:16:52;3.50;;;3.20;;
5871;SDS011;2962;51.312;7.378;2023-07-30T00:19:17;3.20;;;2.90;;
5871;SDS011;2962;51.312;7.378;2023-07-30T00:21:42;4.53;;;3.57;;
5871;SDS011;2962;51.312;7.378;2023-07-30T00:24:11;3.63;;;3.33;;
5871;SDS011;2962;51.312;7.378;2023-07-30T00:26:36;5.70;;;4.00;;
5871;SDS011;2962;51.312;7.378;2023-07-30T00:29:03;11.23;;;4.40;;
5871;SDS011;2962;51.312;7.378;2023-07-30T00:31:28;5.37;;;4.00;;
5871;SDS011;2962;51.312;7.378;2023-07-30T00:33:53;10.77;;;4.37;;
5871;SDS011;2962;51.312;7.378;2023-07-30T00:36:19;3.83;;;3.60;;
5871;SDS011;2962;51.312;7.378;2023-07-30T00:38:44;6.07;;;4.00;;
5871;SDS011;2962;51.312;7.378;2023-07-30T00:41:09;5.27;;;4.67;;
5871;SDS011;2962;51.312;7.378;2023-07-30T00:43:34;3.87;;;3.67;;
5871;SDS011;2962;51.312;7.378;2023-07-30T00:46:00;6.10;;;4.07;;
5871;SDS011;2962;51.312;7.378;2023-07-30T00:48:25;6.53;;;3.63;;
5871;SDS011;2962;51.312;7.378;2023-07-30T00:50:50;4.33;;;4.13;;
5871;SDS011;2962;51.312;7.378;2023-07-30T00:53:16;7.40;;;4.00;;
5871;SDS011;2962;51.312;7.378;2023-07-30T00:55:42;3.47;;;3.27;;
5871;SDS011;2962;51.312;7.378;2023-07-30T00:58:09;3.43;;;3.13;;
5871;SDS011;2962;51.312;7.378;2023-07-30T01:00:35;6.80;;;3.37;;
5871;SDS011;2962;51.312;7.378;2023-07-30T01:03:00;6.90;;;4.50;;
5871;SDS011;2962;51.312;7.378;2023-07-30T01:05:25;4.13;;;3.77;;
5871;SDS011;2962;51.312;7.378;2023-07-30T01:07:51;12.30;;;4.17;;
5871;SDS011;2962;51.312;7.378;2023-07-30T01:10:16;6.90;;;3.17;;
5871;SDS011;2962;51.312;7.378;2023-07-30T01:12:42;6.90;;;3.57;;
5871;SDS011;2962;51.312;7.378;2023-07-30T01:15:09;4.40;;;3.10;;
5871;SDS011;2962;51.312;7.378;2023-07-30T01:17:34;4.73;;;3.20;;
5871;SDS011;2962;51.312;7.378;2023-07-30T01:20:00;6.20;;;2.97;;
5871;SDS011;2962;51.312;7.378;2023-07-30T01:22:25;5.07;;;3.17;;
5871;SDS011;2962;51.312;7.378;2023-07-30T01:24:51;3.97;;;3.57;;
5871;SDS011;2962;51.312;7.378;2023-07-30T01:27:28;6.07;;;3.40;;
5871;SDS011;2962;51.312;7.378;2023-07-30T01:30:06;7.87;;;3.00;;
5871;SDS011;2962;51.312;7.378;2023-07-30T01:32:38;3.97;;;3.10;;
5871;SDS011;2962;51.312;7.378;2023-07-30T01:35:05;5.53;;;3.43;;
5871;SDS011;2962;51.312;7.378;2023-07-30T01:37:33;7.40;;;4.13;;
5871;SDS011;2962;51.312;7.378;2023-07-30T01:39:59;7.70;;;3.30;;
5871;SDS011;2962;51.312;7.378;2023-07-30T01:42:29;8.43;;;3.33;;
5871;SDS011;2962;51.312;7.378;2023-07-30T01:44:54;11.83;;;2.70;;
5871;SDS011;2962;51.312;7.378;2023-07-30T01:47:20;4.73;;;2.77;;
5871;SDS011;2962;51.312;7.378;2023-07-30T01:49:45;3.83;;;3.27;;
5871;SDS011;2962;51.312;7.378;2023-07-30T01:52:10;6.53;;;3.20;;
5871;SDS011;2962;51.312;7.378;2023-07-30T01:54:35;3.33;;;3.00;;
5871;SDS011;2962;51.312;7.378;2023-07-30T01:57:01;8.53;;;3.10;;
5871;SDS011;2962;51.312;7.378;2023-07-30T01:59:26;6.43;;;3.13;;
5871;SDS011;2962;51.312;7.378;2023-07-30T02:01:52;9.00;;;3.47;;
5871;SDS011;2962;51.312;7.378;2023-07-30T02:04:17;7.70;;;3.43;;
5871;SDS011;2962;51.312;7.378;2023-07-30T02:06:43;6.27;;;2.90;;
5871;SDS011;2962;51.312;7.378;2023-07-30T02:09:08;5.00;;;3.37;;
5871;SDS011;2962;51.312;7.378;2023-07-30T02:11:33;3.87;;;3.57;;
5871;SDS011;2962;51.312;7.378;2023-07-30T02:13:59;5.30;;;3.70;;
5871;SDS011;2962;51.312;7.378;2023-07-30T02:16:24;6.93;;;3.57;;
5871;SDS011;2962;51.312;7.378;2023-07-30T02:18:49;3.60;;;2.90;;
5871;SDS011;2962;51.312;7.378;2023-07-30T02:21:14;4.90;;;2.80;;
5871;SDS011;2962;51.312;7.378;2023-07-30T02:23:40;4.60;;;2.83;;
5871;SDS011;2962;51.312;7.378;2023-07-30T02:26:05;4.90;;;2.90;;
5871;SDS011;2962;51.312;7.378;2023-07-30T02:28:30;3.20;;;2.53;;
5871;SDS011;2962;51.312;7.378;2023-07-30T02:30:56;8.97;;;3.20;;
5871;SDS011;2962;51.312;7.378;2023-07-30T02:33:21;3.43;;;3.17;;
5871;SDS011;2962;51.312;7.378;2023-07-30T02:35:46;8.90;;;3.60;;
5871;SDS011;2962;51.312;7.378;2023-07-30T02:38:12;6.90;;;3.13;;
5871;SDS011;2962;51.312;7.378;2023-07-30T02:40:37;2.63;;;2.50;;
5871;SDS011;2962;51.312;7.378;2023-07-30T02:43:02;4.33;;;3.10;;
5871;SDS011;2962;51.312;7.378;2023-07-30T02:45:29;4.77;;;2.90;;
5871;SDS011;2962;51.312;7.378;2023-07-30T02:47:54;5.97;;;2.90;;
5871;SDS011;2962;51.312;7.378;2023-07-30T02:50:20;6.40;;;3.50;;
5871;SDS011;2962;51.312;7.378;2023-07-30T02:52:45;5.77;;;2.80;;
5871;SDS011;2962;51.312;7.378;2023-07-30T02:55:10;3.10;;;2.90;;
5871;SDS011;2962;51.312;7.378;2023-07-30T02:57:36;5.23;;;3.13;;
5871;SDS011;2962;51.312;7.378;2023-07-30T03:00:02;5.50;;;3.53;;
5871;SDS011;2962;51.312;7.378;2023-07-30T03:02:29;6.70;;;3.90;;
5871;SDS011;2962;51.312;7.378;2023-07-30T03:04:54;10.10;;;3.60;;
5871;SDS011;2962;51.312;7.378;2023-07-30T03:07:20;3.90;;;3.07;;
5871;SDS011;2962;51.312;7.378;2023-07-30T03:09:45;5.47;;;3.77;;
5871;SDS011;2962;51.312;7.378;2023-07-30T03:12:11;3.80;;;3.60;;
5871;SDS011;2962;51.312;7.378;2023-07-30T03:14:36;9.03;;;3.77;;
5871;SDS011;2962;51.312;7.378;2023-07-30T03:17:01;3.40;;;3.10;;
5871;SDS011;2962;51.312;7.378;2023-07-30T03:19:27;4.57;;;3.17;;
5871;SDS011;2962;51.312;7.378;2023-07-30T03:21:52;5.80;;;3.03;;
5871;SDS011;2962;51.312;7.378;2023-07-30T03:24:17;7.80;;;3.60;;
5871;SDS011;2962;51.312;7.378;2023-07-30T03:26:43;7.10;;;3.73;;
5871;SDS011;2962;51.312;7.378;2023-07-30T03:29:08;8.43;;;3.63;;
5871;SDS011;2962;51.312;7.378;2023-07-30T03:31:33;11.07;;;3.50;;
5871;SDS011;2962;51.312;7.378;2023-07-30T03:33:59;14.50;;;3.50;;
5871;SDS011;2962;51.312;7.378;2023-07-30T03:36:24;3.90;;;3.60;;
5871;SDS011;2962;51.312;7.378;2023-07-30T03:38:49;6.30;;;2.90;;
5871;SDS011;2962;51.312;7.378;2023-07-30T03:41:15;10.73;;;3.43;;
5871;SDS011;2962;51.312;7.378;2023-07-30T03:43:40;6.53;;;3.10;;
5871;SDS011;2962;51.312;7.378;2023-07-30T03:46:05;8.93;;;3.33;;
5871;SDS011;2962;51.312;7.378;2023-07-30T03:48:31;3.57;;;3.10;;
5871;SDS011;2962;51.312;7.378;2023-07-30T03:50:56;3.73;;;2.90;;
5871;SDS011;2962;51.312;7.378;2023-07-30T03:53:22;7.30;;;2.97;;
5871;SDS011;2962;51.312;7.378;2023-07-30T03:55:47;16.47;;;3.60;;
5871;SDS011;2962;51.312;7.378;2023-07-30T03:58:13;4.67;;;3.03;;
5871;SDS011;2962;51.312;7.378;2023-07-30T04:00:39;7.00;;;3.07;;
5871;SDS011;2962;51.312;7.378;2023-07-30T04:03:04;10.30;;;3.30;;
5871;SDS011;2962;51.312;7.378;2023-07-30T04:05:30;9.30;;;3.83;;
5871;SDS011;2962;51.312;7.378;2023-07-30T04:07:55;5.73;;;3.50;;
5871;SDS011;2962;51.312;7.378;2023-07-30T04:10:21;9.73;;;3.57;;
5871;SDS011;2962;51.312;7.378;2023-07-30T04:12:47;3.60;;;3.30;;
5871;SDS011;2962;51.312;7.378;2023-07-30T04:15:12;9.63;;;3.70;;
5871;SDS011;2962;51.312;7.378;2023-07-30T04:17:38;5.57;;;3.10;;
5871;SDS011;2962;51.312;7.378;2023-07-30T04:20:03;6.40;;;3.27;;
5871;SDS011;2962;51.312;7.378;2023-07-30T04:22:29;8.17;;;3.20;;
5871;SDS011;2962;51.312;7.378;2023-07-30T04:24:55;3.40;;;3.07;;
5871;SDS011;2962;51.312;7.378;2023-07-30T04:27:20;3.83;;;2.80;;
5871;SDS011;2962;51.312;7.378;2023-07-30T04:29:46;6.60;;;3.40;;
5871;SDS011;2962;51.312;7.378;2023-07-30T04:32:11;8.13;;;3.10;;
5871;SDS011;2962;51.312;7.378;2023-07-30T04:34:36;8.23;;;3.10;;
5871;SDS011;2962;51.312;7.378;2023-07-30T04:37:01;2.67;;;2.40;;
5871;SDS011;2962;51.312;7.378;2023-07-30T04:39:27;5.03;;;2.50;;
5871;SDS011;2962;51.312;7.378;2023-07-30T04:41:53;6.20;;;2.90;;
5871;SDS011;2962;51.312;7.378;2023-07-30T04:44:18;5.87;;;3.27;;
5871;SDS011;2962;51.312;7.378;2023-07-30T04:46:43;5.67;;;2.37;;
5871;SDS011;2962;51.312;7.378;2023-07-30T04:49:08;2.77;;;2.43;;
5871;SDS011;2962;51.312;7.378;2023-07-30T04:51:34;3.63;;;2.10;;
5871;SDS011;2962;51.312;7.378;2023-07-30T04:53:59;12.73;;;3.00;;
5871;SDS011;2962;51.312;7.378;2023-07-30T04:56:24;4.53;;;2.27;;
5871;SDS011;2962;51.312;7.378;2023-07-30T04:58:51;2.80;;;2.30;;
5871;SDS011;2962;51.312;7.378;2023-07-30T05:01:17;4.87;;;2.67;;
5871;SDS011;2962;51.312;7.378;2023-07-30T05:03:42;9.07;;;2.53;;
5871;SDS011;2962;51.312;7.378;2023-07-30T05:06:07;15.17;;;2.83;;
5871;SDS011;2962;51.312;7.378;2023-07-30T05:08:32;8.03;;;3.03;;
5871;SDS011;2962;51.312;7.378;2023-07-30T05:10:58;8.17;;;3.03;;
5871;SDS011;2962;51.312;7.378;2023-07-30T05:13:23;8.30;;;2.90;;
5871;SDS011;2962;51.312;7.378;2023-07-30T05:15:48;5.43;;;2.53;;
5871;SDS011;2962;51.312;7.378;2023-07-30T05:18:14;5.17;;;2.37;;
5871;SDS011;2962;51.312;7.378;2023-07-30T05:20:39;5.57;;;3.07;;
5871;SDS011;2962;51.312;7.378;2023-07-30T05:23:04;9.23;;;1.83;;
5871;SDS011;2962;51.312;7.378;2023-07-30T05:25:31;8.90;;;2.23;;
5871;SDS011;2962;51.312;7.378;2023-07-30T05:27:57;2.50;;;2.20;;
5871;SDS011;2962;51.312;7.378;2023-07-30T05:30:22;8.23;;;3.03;;
5871;SDS011;2962;51.312;7.378;2023-07-30T05:32:47;6.63;;;2.80;;
5871;SDS011;2962;51.312;7.378;2023-07-30T05:35:13;2.97;;;2.47;;
5871;SDS011;2962;51.312;7.378;2023-07-30T05:37:38;12.40;;;2.73;;
5871;SDS011;2962;51.312;7.378;2023-07-30T05:40:04;5.43;;;2.70;;
5871;SDS011;2962;51.312;7.378;2023-07-30T05:42:29;5.50;;;1.90;;
5871;SDS011;2962;51.312;7.378;2023-07-30T05:44:55;7.00;;;2.33;;
5871;SDS011;2962;51.312;7.378;2023-07-30T05:47:20;12.20;;;2.43;;
5871;SDS011;2962;51.312;7.378;2023-07-30T05:49:45;10.70;;;3.23;;
5871;SDS011;2962;51.312;7.378;2023-07-30T05:52:11;4.70;;;2.43;;
5871;SDS011;2962;51.312;7.378;2023-07-30T05:54:36;8.07;;;2.23;;
5871;SDS011;2962;51.312;7.378;2023-07-30T05:57:01;14.17;;;2.77;;
5871;SDS011;2962;51.312;7.378;2023-07-30T05:59:26;6.43;;;2.90;;
5871;SDS011;2962;51.312;7.378;2023-07-30T06:01:52;4.33;;;2.60;;
5871;SDS011;2962;51.312;7.378;2023-07-30T06:04:17;7.10;;;2.73;;
5871;SDS011;2962;51.312;7.378;2023-07-30T06:06:42;7.17;;;2.27;;
5871;SDS011;2962;51.312;7.378;2023-07-30T06:09:08;9.73;;;2.60;;
5871;SDS011;2962;51.312;7.378;2023-07-30T06:11:33;4.67;;;2.57;;
5871;SDS011;2962;51.312;7.378;2023-07-30T06:13:58;5.30;;;2.27;;
5871;SDS011;2962;51.312;7.378;2023-07-30T06:16:23;6.20;;;2.03;;
5871;SDS011;2962;51.312;7.378;2023-07-30T06:18:49;4.80;;;2.10;;
5871;SDS011;2962;51.312;7.378;2023-07-30T06:21:14;10.10;;;3.07;;
5871;SDS011;2962;51.312;7.378;2023-07-30T06:23:40;13.63;;;2.77;;
5871;SDS011;2962;51.312;7.378;2023-07-30T06:26:05;5.07;;;2.60;;
5871;SDS011;2962;51.312;7.378;2023-07-30T06:28:30;6.10;;;2.80;;
5871;SDS011;2962;51.312;7.378;2023-07-30T06:30:59;9.03;;;2.40;;
5871;SDS011;2962;51.312;7.378;2023-07-30T06:33:25;5.83;;;3.03;;
5871;SDS011;2962;51.312;7.378;2023-07-30T06:35:50;6.60;;;2.80;;
5871;SDS011;2962;51.312;7.378;2023-07-30T06:38:15;11.53;;;3.50;;
5871;SDS011;2962;51.312;7.378;2023-07-30T06:40:41;8.43;;;2.80;;
5871;SDS011;2962;51.312;7.378;2023-07-30T06:43:06;6.43;;;2.87;;
5871;SDS011;2962;51.312;7.378;2023-07-30T06:45:31;11.63;;;3.43;;
5871;SDS011;2962;51.312;7.378;2023-07-30T06:47:56;15.27;;;3.20;;
5871;SDS011;2962;51.312;7.378;2023-07-30T06:50:22;7.40;;;2.93;;
5871;SDS011;2962;51.312;7.378;2023-07-30T06:52:47;8.80;;;2.63;;
5871;SDS011;2962;51.312;7.378;2023-07-30T06:55:12;4.00;;;2.33;;
5871;SDS011;2962;51.312;7.378;2023-07-30T06:57:37;8.10;;;2.80;;
5871;SDS011;2962;51.312;7.378;2023-07-30T07:00:03;7.67;;;2.80;;
5871;SDS011;2962;51.312;7.378;2023-07-30T07:02:29;15.07;;;3.50;;
5871;SDS011;2962;51.312;7.378;2023-07-30T07:04:55;10.93;;;3.13;;
5871;SDS011;2962;51.312;7.378;2023-07-30T07:07:20;13.60;;;3.80;;
5871;SDS011;2962;51.312;7.378;2023-07-30T07:09:46;11.83;;;3.30;;
5871;SDS011;2962;51.312;7.378;2023-07-30T07:12:11;14.23;;;3.13;;
5871;SDS011;2962;51.312;7.378;2023-07-30T07:14:37;9.77;;;2.90;;
5871;SDS011;2962;51.312;7.378;2023-07-30T07:17:02;10.20;;;2.93;;
5871;SDS011;2962;51.312;7.378;2023-07-30T07:19:27;6.20;;;2.70;;
5871;SDS011;2962;51.312;7.378;2023-07-30T07:21:53;9.47;;;3.17;;
5871;SDS011;2962;51.312;7.378;2023-07-30T07:24:18;6.20;;;2.63;;
5871;SDS011;2962;51.312;7.378;2023-07-30T07:26:44;6.47;;;2.57;;
5871;SDS011;2962;51.312;7.378;2023-07-30T07:29:09;7.87;;;2.90;;
5871;SDS011;2962;51.312;7.378;2023-07-30T07:31:35;7.97;;;3.03;;
5871;SDS011;2962;51.312;7.378;2023-07-30T07:34:00;7.17;;;2.77;;
5871;SDS011;2962;51.312;7.378;2023-07-30T07:36:26;9.73;;;2.97;;
5871;SDS011;2962;51.312;7.378;2023-07-30T07:38:51;10.93;;;3.50;;
5871;SDS011;2962;51.312;7.378;2023-07-30T07:41:16;8.13;;;3.00;;
5871;SDS011;2962;51.312;7.378;2023-07-30T07:43:43;12.53;;;3.37;;
5871;SDS011;2962;51.312;7.378;2023-07-30T07:46:09;8.70;;;2.77;;
5871;SDS011;2962;51.312;7.378;2023-07-30T07:48:38;16.00;;;3.80;;
5871;SDS011;2962;51.312;7.378;2023-07-30T07:51:05;9.20;;;3.17;;
5871;SDS011;2962;51.312;7.378;2023-07-30T07:53:30;7.00;;;3.67;;
5871;SDS011;2962;51.312;7.378;2023-07-30T07:55:56;10.13;;;3.20;;
5871;SDS011;2962;51.312;7.378;2023-07-30T07:58:21;7.77;;;3.10;;
5871;SDS011;2962;51.312;7.378;2023-07-30T08:00:46;10.17;;;3.53;;
5871;SDS011;2962;51.312;7.378;2023-07-30T08:03:12;5.60;;;3.00;;
5871;SDS011;2962;51.312;7.378;2023-07-30T08:05:37;11.33;;;4.00;;
5871;SDS011;2962;51.312;7.378;2023-07-30T08:08:02;7.30;;;2.70;;
5871;SDS011;2962;51.312;7.378;2023-07-30T08:10:28;11.03;;;3.27;;
5871;SDS011;2962;51.312;7.378;2023-07-30T08:12:53;21.80;;;3.43;;
5871;SDS011;2962;51.312;7.378;2023-07-30T08:15:18;7.00;;;2.70;;
5871;SDS011;2962;51.312;7.378;2023-07-30T08:17:44;15.30;;;2.80;;
5871;SDS011;2962;51.312;7.378;2023-07-30T08:20:09;9.03;;;2.33;;
5871;SDS011;2962;51.312;7.378;2023-07-30T08:22:35;7.87;;;2.40;;
5871;SDS011;2962;51.312;7.378;2023-07-30T08:25:01;4.33;;;2.30;;
5871;SDS011;2962;51.312;7.378;2023-07-30T08:27:27;6.03;;;3.20;;
5871;SDS011;2962;51.312;7.378;2023-07-30T08:29:52;3.47;;;3.00;;
5871;SDS011;2962;51.312;7.378;2023-07-30T08:32:17;10.87;;;3.00;;
5871;SDS011;2962;51.312;7.378;2023-07-30T08:34:42;18.47;;;3.13;;
5871;SDS011;2962;51.312;7.378;2023-07-30T08:37:08;8.53;;;2.67;;
5871;SDS011;2962;51.312;7.378;2023-07-30T08:39:33;9.03;;;3.73;;
5871;SDS011;2962;51.312;7.378;2023-07-30T08:41:58;6.30;;;2.43;;
5871;SDS011;2962;51.312;7.378;2023-07-30T08:44:24;6.00;;;2.63;;
5871;SDS011;2962;51.312;7.378;2023-07-30T08:46:50;6.50;;;2.50;;
5871;SDS011;2962;51.312;7.378;2023-07-30T08:49:15;11.23;;;2.90;;
5871;SDS011;2962;51.312;7.378;2023-07-30T08:51:41;7.20;;;2.57;;
5871;SDS011;2962;51.312;7.378;2023-07-30T08:54:08;10.63;;;2.93;;
5871;SDS011;2962;51.312;7.378;2023-07-30T08:56:34;3.80;;;2.07;;
5871;SDS011;2962;51.312;7.378;2023-07-30T08:59:00;10.70;;;2.70;;
5871;SDS011;2962;51.312;7.378;2023-07-30T09:01:30;13.33;;;3.30;;
5871;SDS011;2962;51.312;7.378;2023-07-30T09:03:58;8.57;;;2.87;;
5871;SDS011;2962;51.312;7.378;2023-07-30T09:06:27;7.77;;;2.40;;
5871;SDS011;2962;51.312;7.378;2023-07-30T09:08:52;11.13;;;3.00;;
5871;SDS011;2962;51.312;7.378;2023-07-30T09:11:18;5.93;;;2.20;;
5871;SDS011;2962;51.312;7.378;2023-07-30T09:13:43;6.03;;;2.50;;
5871;SDS011;2962;51.312;7.378;2023-07-30T09:16:12;6.43;;;2.50;;
5871;SDS011;2962;51.312;7.378;2023-07-30T09:18:43;5.43;;;2.00;;
5871;SDS011;2962;51.312;7.378;2023-07-30T09:21:10;7.30;;;2.70;;
5871;SDS011;2962;51.312;7.378;2023-07-30T09:23:43;3.93;;;2.63;;
5871;SDS011;2962;51.312;7.378;2023-07-30T09:26:10;4.60;;;2.93;;
5871;SDS011;2962;51.312;7.378;2023-07-30T09:28:36;9.00;;;3.13;;
5871;SDS011;2962;51.312;7.378;2023-07-30T09:31:05;6.50;;;2.77;;
5871;SDS011;2962;51.312;7.378;2023-07-30T09:33:33;11.03;;;3.00;;
5871;SDS011;2962;51.312;7.378;2023-07-30T09:36:05;4.33;;;2.40;;
5871;SDS011;2962;51.312;7.378;2023-07-30T09:38:32;5.27;;;2.30;;
5871;SDS011;2962;51.312;7.378;2023-07-30T09:41:03;10.90;;;2.77;;
5871;SDS011;2962;51.312;7.378;2023-07-30T09:43:29;5.17;;;2.10;;
5871;SDS011;2962;51.312;7.378;2023-07-30T09:46:01;11.00;;;3.00;;
5871;SDS011;2962;51.312;7.378;2023-07-30T09:48:30;5.40;;;2.27;;
5871;SDS011;2962;51.312;7.378;2023-07-30T09:50:58;5.30;;;2.40;;
5871;SDS011;2962;51.312;7.378;2023-07-30T09:53:24;7.07;;;2.20;;
5871;SDS011;2962;51.312;7.378;2023-07-30T09:55:50;13.40;;;2.47;;
5871;SDS011;2962;51.312;7.378;2023-07-30T09:58:15;11.30;;;2.37;;
5871;SDS011;2962;51.312;7.378;2023-07-30T10:00:41;5.80;;;2.93;;
5871;SDS011;2962;51.312;7.378;2023-07-30T10:03:07;6.57;;;2.17;;
5871;SDS011;2962;51.312;7.378;2023-07-30T10:05:35;5.63;;;1.70;;
5871;SDS011;2962;51.312;7.378;2023-07-30T10:08:04;3.60;;;1.70;;
5871;SDS011;2962;51.312;7.378;2023-07-30T10:10:33;12.87;;;2.30;;
5871;SDS011;2962;51.312;7.378;2023-07-30T10:12:59;9.17;;;1.97;;
5871;SDS011;2962;51.312;7.378;2023-07-30T10:15:28;4.53;;;1.63;;
5871;SDS011;2962;51.312;7.378;2023-07-30T10:17:53;4.00;;;2.00;;
5871;SDS011;2962;51.312;7.378;2023-07-30T10:20:25;5.47;;;1.50;;
5871;SDS011;2962;51.312;7.378;2023-07-30T10:22:52;6.20;;;1.50;;
5871;SDS011;2962;51.312;7.378;2023-07-30T10:25:24;10.83;;;1.80;;
5871;SDS011;2962;51.312;7.378;2023-07-30T10:27:54;8.27;;;1.50;;
5871;SDS011;2962;51.312;7.378;2023-07-30T10:30:19;8.60;;;1.83;;
5871;SDS011;2962;51.312;7.378;2023-07-30T10:35:36;5.17;;;1.60;;
5871;SDS011;2962;51.312;7.378;2023-07-30T10:40:41;5.73;;;1.67;;
5871;SDS011;2962;51.312;7.378;2023-07-30T10:43:14;7.53;;;2.17;;
5871;SDS011;2962;51.312;7.378;2023-07-30T10:45:49;3.93;;;1.40;;
5871;SDS011;2962;51.312;7.378;2023-07-30T10:48:16;2.37;;;1.50;;
5871;SDS011;2962;51.312;7.378;2023-07-30T10:50:42;5.40;;;1.70;;
5871;SDS011;2962;51.312;7.378;2023-07-30T10:53:08;2.10;;;1.03;;
5871;SDS011;2962;51.312;7.378;2023-07-30T10:55:33;5.93;;;1.93;;
5871;SDS011;2962;51.312;7.378;2023-07-30T10:57:59;3.77;;;1.53;;
5871;SDS011;2962;51.312;7.378;2023-07-30T11:00:25;5.43;;;2.00;;
5871;SDS011;2962;51.312;7.378;2023-07-30T11:02:54;3.23;;;1.60;;
5871;SDS011;2962;51.312;7.378;2023-07-30T11:05:19;4.13;;;1.60;;
5871;SDS011;2962;51.312;7.378;2023-07-30T11:07:51;2.47;;;0.90;;
5871;SDS011;2962;51.312;7.378;2023-07-30T11:10:17;3.90;;;1.63;;
5871;SDS011;2962;51.312;7.378;2023-07-30T11:12:42;3.03;;;1.30;;
5871;SDS011;2962;51.312;7.378;2023-07-30T11:15:08;9.00;;;1.63;;
5871;SDS011;2962;51.312;7.378;2023-07-30T11:17:34;2.20;;;1.30;;
5871;SDS011;2962;51.312;7.378;2023-07-30T11:20:00;2.10;;;1.83;;
5871;SDS011;2962;51.312;7.378;2023-07-30T11:22:29;3.47;;;1.20;;
5871;SDS011;2962;51.312;7.378;2023-07-30T11:24:58;1.40;;;1.30;;
5871;SDS011;2962;51.312;7.378;2023-07-30T11:27:23;3.37;;;1.37;;
5871;SDS011;2962;51.312;7.378;2023-07-30T11:29:55;2.80;;;1.27;;
5871;SDS011;2962;51.312;7.378;2023-07-30T11:32:21;3.23;;;1.37;;
5871;SDS011;2962;51.312;7.378;2023-07-30T11:34:51;3.90;;;1.50;;
5871;SDS011;2962;51.312;7.378;2023-07-30T11:37:18;2.93;;;1.23;;
5871;SDS011;2962;51.312;7.378;2023-07-30T11:39:44;1.93;;;1.43;;
5871;SDS011;2962;51.312;7.378;2023-07-30T11:42:10;3.63;;;1.20;;
5871;SDS011;2962;51.312;7.378;2023-07-30T11:44:36;5.70;;;1.80;;
5871;SDS011;2962;51.312;7.378;2023-07-30T11:47:03;5.93;;;1.40;;
5871;SDS011;2962;51.312;7.378;2023-07-30T11:49:29;3.37;;;1.10;;
5871;SDS011;2962;51.312;7.378;2023-07-30T11:52:07;3.77;;;1.50;;
5871;SDS011;2962;51.312;7.378;2023-07-30T11:54:34;6.03;;;1.27;;
5871;SDS011;2962;51.312;7.378;2023-07-30T11:57:00;3.53;;;1.37;;
5871;SDS011;2962;51.312;7.378;2023-07-30T11:59:25;3.50;;;1.20;;
5871;SDS011;2962;51.312;7.378;2023-07-30T12:01:50;4.40;;;1.50;;
5871;SDS011;2962;51.312;7.378;2023-07-30T12:04:16;9.53;;;1.13;;
5871;SDS011;2962;51.312;7.378;2023-07-30T12:09:14;1.50;;;1.23;;
5871;SDS011;2962;51.312;7.378;2023-07-30T12:11:51;3.03;;;1.40;;
5871;SDS011;2962;51.312;7.378;2023-07-30T12:14:18;2.43;;;1.13;;
5871;SDS011;2962;51.312;7.378;2023-07-30T12:16:44;3.23;;;1.20;;
5871;SDS011;2962;51.312;7.378;2023-07-30T12:19:10;5.13;;;1.50;;
5871;SDS011;2962;51.312;7.378;2023-07-30T12:21:36;3.07;;;1.00;;
5871;SDS011;2962;51.312;7.378;2023-07-30T12:24:01;9.00;;;1.60;;
5871;SDS011;2962;51.312;7.378;2023-07-30T12:26:27;4.67;;;1.40;;
5871;SDS011;2962;51.312;7.378;2023-07-30T12:28:52;1.30;;;0.80;;
5871;SDS011;2962;51.312;7.378;2023-07-30T12:31:17;3.60;;;1.20;;
5871;SDS011;2962;51.312;7.378;2023-07-30T12:33:43;1.80;;;1.00;;
5871;SDS011;2962;51.312;7.378;2023-07-30T12:36:08;3.63;;;1.10;;
5871;SDS011;2962;51.312;7.378;2023-07-30T12:38:34;5.73;;;1.50;;
5871;SDS011;2962;51.312;7.378;2023-07-30T12:40:59;3.90;;;1.40;;
5871;SDS011;2962;51.312;7.378;2023-07-30T12:43:24;5.27;;;1.93;;
5871;SDS011;2962;51.312;7.378;2023-07-30T12:45:50;4.93;;;1.20;;
5871;SDS011;2962;51.312;7.378;2023-07-30T12:48:15;11.27;;;2.13;;
5871;SDS011;2962;51.312;7.378;2023-07-30T12:50:41;1.50;;;1.23;;
5871;SDS011;2962;51.312;7.378;2023-07-30T12:53:06;1.70;;;1.17;;
5871;SDS011;2962;51.312;7.378;2023-07-30T12:55:31;9.30;;;1.10;;
5871;SDS011;2962;51.312;7.378;2023-07-30T12:57:56;5.10;;;0.83;;
5871;SDS011;2962;51.312;7.378;2023-07-30T13:00:22;0.90;;;0.90;;
5871;SDS011;2962;51.312;7.378;2023-07-30T13:02:47;2.40;;;1.27;;
5871;SDS011;2962;51.312;7.378;2023-07-30T13:05:12;3.40;;;0.87;;
5871;SDS011;2962;51.312;7.378;2023-07-30T13:07:40;14.63;;;1.00;;
5871;SDS011;2962;51.312;7.378;2023-07-30T13:10:06;4.20;;;1.00;;
5871;SDS011;2962;51.312;7.378;2023-07-30T13:12:32;1.00;;;0.60;;
5871;SDS011;2962;51.312;7.378;2023-07-30T13:14:58;2.47;;;0.93;;
5871;SDS011;2962;51.312;7.378;2023-07-30T13:17:24;2.30;;;0.90;;
5871;SDS011;2962;51.312;7.378;2023-07-30T13:19:49;2.67;;;0.80;;
5871;SDS011;2962;51.312;7.378;2023-07-30T13:22:14;1.07;;;0.50;;
5871;SDS011;2962;51.312;7.378;2023-07-30T13:24:40;0.90;;;0.87;;
5871;SDS011;2962;51.312;7.378;2023-07-30T13:27:05;1.20;;;0.83;;
5871;SDS011;2962;51.312;7.378;2023-07-30T13:29:30;0.60;;;0.60;;
5871;SDS011;2962;51.312;7.378;2023-07-30T13:31:56;3.83;;;0.80;;
5871;SDS011;2962;51.312;7.378;2023-07-30T13:34:21;1.83;;;1.10;;
5871;SDS011;2962;51.312;7.378;2023-07-30T13:36:47;1.13;;;0.80;;
5871;SDS011;2962;51.312;7.378;2023-07-30T13:39:12;1.47;;;1.10;;
5871;SDS011;2962;51.312;7.378;2023-07-30T13:41:37;1.47;;;0.70;;
5871;SDS011;2962;51.312;7.378;2023-07-30T13:44:03;4.20;;;1.20;;
5871;SDS011;2962;51.312;7.378;2023-07-30T13:46:28;0.70;;;0.70;;
5871;SDS011;2962;51.312;7.378;2023-07-30T13:48:53;1.50;;;1.20;;
5871;SDS011;2962;51.312;7.378;2023-07-30T13:51:19;0.80;;;0.80;;
5871;SDS011;2962;51.312;7.378;2023-07-30T13:53:44;3.90;;;1.17;;
5871;SDS011;2962;51.312;7.378;2023-07-30T13:56:09;1.87;;;1.20;;
5871;SDS011;2962;51.312;7.378;2023-07-30T13:58:35;1.23;;;1.07;;
5871;SDS011;2962;51.312;7.378;2023-07-30T14:01:00;2.27;;;1.43;;
5871;SDS011;2962;51.312;7.378;2023-07-30T14:03:25;1.10;;;1.00;;
5871;SDS011;2962;51.312;7.378;2023-07-30T14:05:51;1.90;;;1.00;;
5871;SDS011;2962;51.312;7.378;2023-07-30T14:08:16;2.00;;;0.80;;
5871;SDS011;2962;51.312;7.378;2023-07-30T14:10:41;1.80;;;0.60;;
5871;SDS011;2962;51.312;7.378;2023-07-30T14:13:07;6.60;;;1.20;;
5871;SDS011;2962;51.312;7.378;2023-07-30T14:15:32;1.93;;;0.97;;
5871;SDS011;2962;51.312;7.378;2023-07-30T14:17:57;1.50;;;1.10;;
5871;SDS011;2962;51.312;7.378;2023-07-30T14:20:23;3.43;;;1.40;;
5871;SDS011;2962;51.312;7.378;2023-07-30T14:22:48;1.20;;;1.10;;
5871;SDS011;2962;51.312;7.378;2023-07-30T14:25:14;1.17;;;0.83;;
5871;SDS011;2962;51.312;7.378;2023-07-30T14:27:40;1.27;;;1.00;;
5871;SDS011;2962;51.312;7.378;2023-07-30T14:30:05;3.37;;;1.17;;
5871;SDS011;2962;51.312;7.378;2023-07-30T14:32:31;1.20;;;1.13;;
5871;SDS011;2962;51.312;7.378;2023-07-30T14:34:56;5.83;;;1.37;;
5871;SDS011;2962;51.312;7.378;2023-07-30T14:37:22;1.70;;;0.90;;
5871;SDS011;2962;51.312;7.378;2023-07-30T14:39:47;1.63;;;1.50;;
5871;SDS011;2962;51.312;7.378;2023-07-30T14:42:12;2.10;;;1.23;;
5871;SDS011;2962;51.312;7.378;2023-07-30T14:44:38;5.20;;;1.40;;
5871;SDS011;2962;51.312;7.378;2023-07-30T14:47:03;3.90;;;1.30;;
5871;SDS011;2962;51.312;7.378;2023-07-30T14:49:30;2.50;;;1.40;;
5871;SDS011;2962;51.312;7.378;2023-07-30T14:51:55;5.00;;;1.23;;
5871;SDS011;2962;51.312;7.378;2023-07-30T14:54:21;1.53;;;1.30;;
5871;SDS011;2962;51.312;7.378;2023-07-30T14:56:47;2.97;;;1.07;;
5871;SDS011;2962;51.312;7.378;2023-07-30T14:59:12;3.37;;;1.50;;
5871;SDS011;2962;51.312;7.378;2023-07-30T15:01:37;1.87;;;1.60;;
5871;SDS011;2962;51.312;7.378;2023-07-30T15:04:03;2.30;;;1.00;;
5871;SDS011;2962;51.312;7.378;2023-07-30T15:06:29;4.80;;;1.50;;
5871;SDS011;2962;51.312;7.378;2023-07-30T15:08:55;2.03;;;1.10;;
5871;SDS011;2962;51.312;7.378;2023-07-30T15:11:21;2.57;;;1.40;;
5871;SDS011;2962;51.312;7.378;2023-07-30T15:13:46;4.07;;;0.93;;